Celina, Tennessee
Current Conditions -  °F | °C
As of 8:55 AM on Tuesday 21 Oct 2014 (Local Time) from KSRB Reporting Station
Clear Clear  
Wind Chill: 12°   Ceiling: Unl
Heat Index: 12°   Visibility: 10mi
Dew Point: 11°   Wind: 0mph
Humidity: 94%   Direction: NA
Pressure: 30.05"   Gusts: NA
Location:  36.55°N, 85.51°W
Report Text: KSRB 211355Z AUTO 00000KT 10SM CLR 12/11 A3005 RMK
Loading
Personal Weather Stations






























Interactive Weather Map
Tropical Storm Tracking
New forecast layout! Learn more

10-Day Weather Forecast

Advertisements
Track Severe Weather on mobile